To NAV CANADA Home Page Login to a new session Search on AWWS site Disclaimer Vers la page française équivalente Tips FAQ What's new on the site To the Forecasts and Observations / NOTAM section To "File a Flight Plan" website Publications and other links Update of the User's profile FIC Telephone Numbers My Weather Data Folder Route Weather Data Regional Weather Data Local Weather Data To the Forecasts and Observations / NOTAM section
Request Generated 10/19/2018 at 15:27:42 UTC . Weather information available at that time is displayed.

METAR/TAF

FORT GOOD HOPE/NT    

METAR CYGH 191500Z 08005KT 20SM FEW050 SCT110 BKN130 M11/M12 A3001 RMK SC1AC3AC2 SLP172=
METAR CYGH 191400Z 10004KT 20SM FEW110 FEW130 M12/M13 A3004 RMK AC2AC1 AC TR SLP182=
METAR CYGH 191300Z 09005KT 20SM FEW009 FEW110 M11/M13 A3006 RMK ST1AC1 ST TR -4.3/ -11.9/ 0.0/ SNW CVR/ MUCH LOOSE/ SLP190=

TAF CYGH 191410Z 1914/1923 09005KT P6SM FEW008 SCT120 BKN200 PROB40
1914/1919 3SM BR BKN008
RMK NXT FCST BY 191800Z=
Your time UTC time
Weather data provided by Environment Canada and NAV CANADA